createdAt,value
2022-10-06T00:02:24.000Z,10.95
2022-10-06T00:07:25.000Z,11.85
2022-10-06T00:12:24.000Z,9.88
2022-10-06T00:17:25.000Z,8.52
2022-10-06T00:22:24.000Z,7.65
2022-10-06T00:27:25.000Z,6.95
2022-10-06T00:32:24.000Z,6.82
2022-10-06T00:37:25.000Z,6.58
2022-10-06T00:42:24.000Z,6.74
2022-10-06T00:47:24.000Z,7.08
2022-10-06T00:52:24.000Z,6.43
2022-10-06T00:57:24.000Z,6.54
2022-10-06T01:02:24.000Z,6.58
2022-10-06T01:07:25.000Z,6.63
2022-10-06T01:12:24.000Z,6.28
2022-10-06T01:17:24.000Z,6.8
2022-10-06T01:22:25.000Z,7.17
2022-10-06T01:27:24.000Z,7.23
2022-10-06T01:32:24.000Z,6.79
2022-10-06T01:37:25.000Z,6.64
2022-10-06T01:42:25.000Z,6.71
2022-10-06T01:47:24.000Z,6.86
2022-10-06T01:52:25.000Z,6.64
2022-10-06T01:57:24.000Z,7.03
2022-10-06T02:02:25.000Z,6.8
2022-10-06T02:07:24.000Z,7.11
2022-10-06T02:12:25.000Z,7.31
2022-10-06T02:17:25.000Z,7.25
2022-10-06T02:22:24.000Z,7.57
2022-10-06T02:27:25.000Z,7.59
2022-10-06T02:32:25.000Z,7.54
2022-10-06T02:37:24.000Z,7.39
2022-10-06T02:42:24.000Z,7.45
2022-10-06T02:47:25.000Z,7.41
2022-10-06T02:52:24.000Z,7.32
2022-10-06T02:57:25.000Z,7.35
2022-10-06T03:02:24.000Z,7.36
2022-10-06T03:07:25.000Z,7.89
2022-10-06T03:17:25.000Z,7.35
2022-10-06T03:22:24.000Z,7.26
2022-10-06T03:27:24.000Z,8.02
2022-10-06T03:32:25.000Z,8.75
2022-10-06T03:37:24.000Z,7.76
2022-10-06T03:42:25.000Z,7.73
2022-10-06T03:47:24.000Z,7.98
2022-10-06T03:52:24.000Z,8.72
2022-10-06T03:57:24.000Z,8.25
2022-10-06T04:02:25.000Z,8.4
2022-10-06T04:07:24.000Z,8.17
2022-10-06T04:12:24.000Z,8.17
2022-10-06T04:17:24.000Z,8.79
2022-10-06T04:22:25.000Z,9.03
2022-10-06T04:27:24.000Z,10.62
2022-10-06T04:32:25.000Z,10.6
2022-10-06T04:37:25.000Z,10.4
2022-10-06T04:42:24.000Z,10.35
2022-10-06T04:47:25.000Z,10.48
2022-10-06T04:52:24.000Z,9.64
2022-10-06T04:57:24.000Z,10.03
2022-10-06T05:02:25.000Z,9.6
2022-10-06T05:07:24.000Z,9.63
2022-10-06T05:12:24.000Z,10.39
2022-10-06T05:17:25.000Z,10.56
2022-10-06T05:22:25.000Z,10.32
2022-10-06T05:27:24.000Z,9.81
2022-10-06T05:32:24.000Z,9.53
2022-10-06T05:37:24.000Z,9.22
2022-10-06T05:42:24.000Z,9.42
2022-10-06T05:47:24.000Z,9.4
2022-10-06T05:52:24.000Z,9.86
2022-10-06T05:57:25.000Z,10.08
2022-10-06T06:02:24.000Z,10.44
2022-10-06T06:07:25.000Z,11.5
2022-10-06T06:12:25.000Z,9.36
2022-10-06T06:17:24.000Z,9.49
2022-10-06T06:22:24.000Z,10.61
2022-10-06T06:27:24.000Z,10.75
2022-10-06T06:32:25.000Z,10.57
2022-10-06T06:37:24.000Z,10.95
2022-10-06T06:42:24.000Z,10.92
2022-10-06T06:47:25.000Z,10.92
2022-10-06T06:52:24.000Z,12.17
2022-10-06T06:57:24.000Z,11.98
2022-10-06T07:02:25.000Z,13
2022-10-06T07:07:24.000Z,12.76
2022-10-06T07:12:25.000Z,12.92
2022-10-06T07:17:24.000Z,12.51
2022-10-06T07:22:24.000Z,12.02
2022-10-06T07:27:24.000Z,11.54
2022-10-06T07:32:24.000Z,11.03
2022-10-06T07:37:24.000Z,10.84
2022-10-06T07:42:24.000Z,11.25
2022-10-06T07:47:25.000Z,11.96
2022-10-06T07:52:24.000Z,12.49
2022-10-06T07:57:24.000Z,12.14
2022-10-06T08:02:24.000Z,11.73
2022-10-06T08:07:25.000Z,11.47
2022-10-06T08:17:24.000Z,11.96
2022-10-06T08:22:24.000Z,13.74
2022-10-06T08:27:24.000Z,14.1
2022-10-06T08:32:24.000Z,14.27
2022-10-06T08:37:24.000Z,15.77
2022-10-06T08:42:25.000Z,15.26
2022-10-06T08:47:24.000Z,14.68
2022-10-06T08:52:24.000Z,15.2
2022-10-06T08:57:24.000Z,14.29
2022-10-06T09:02:24.000Z,13.96
2022-10-06T09:07:25.000Z,13.96
2022-10-06T09:12:24.000Z,13.24
2022-10-06T09:17:25.000Z,12.68
2022-10-06T09:22:24.000Z,12.82
2022-10-06T09:27:24.000Z,12.59
2022-10-06T09:32:24.000Z,12.5
2022-10-06T09:37:24.000Z,12.37
2022-10-06T09:42:24.000Z,12.03
2022-10-06T09:47:25.000Z,13.39
2022-10-06T09:52:24.000Z,13.63
2022-10-06T09:57:24.000Z,13.8
2022-10-06T10:02:25.000Z,12.13
2022-10-06T10:07:24.000Z,12.57
2022-10-06T10:12:24.000Z,11.76
2022-10-06T10:17:24.000Z,11.43
2022-10-06T10:22:24.000Z,10.97
2022-10-06T10:27:25.000Z,10.73
2022-10-06T10:32:24.000Z,10.84
2022-10-06T10:37:25.000Z,10.57
2022-10-06T10:42:24.000Z,10.55
2022-10-06T10:47:25.000Z,10.17
2022-10-06T10:52:25.000Z,10.13
2022-10-06T10:57:24.000Z,10.45
2022-10-06T11:02:25.000Z,10.96
2022-10-06T11:07:24.000Z,10.4
2022-10-06T11:12:24.000Z,10.22
2022-10-06T11:17:24.000Z,9.87
2022-10-06T11:22:25.000Z,9.99
2022-10-06T11:27:24.000Z,9.96
2022-10-06T11:32:24.000Z,10.27
2022-10-06T11:37:24.000Z,11.28
2022-10-06T11:42:24.000Z,12.34
2022-10-06T11:47:24.000Z,13.07
2022-10-06T11:52:25.000Z,13.07
2022-10-06T11:57:24.000Z,12.89
2022-10-06T12:02:25.000Z,13.29
2022-10-06T12:07:24.000Z,12.36
2022-10-06T12:12:25.000Z,12.51
2022-10-06T12:17:25.000Z,12.38
2022-10-06T12:22:25.000Z,11.61
2022-10-06T12:27:24.000Z,11.49
2022-10-06T12:32:24.000Z,11.01
2022-10-06T12:37:25.000Z,11.29
2022-10-06T12:42:25.000Z,11.49
2022-10-06T12:47:24.000Z,12.04
2022-10-06T12:52:24.000Z,12.6
2022-10-06T12:57:25.000Z,12.72
2022-10-06T13:02:24.000Z,11.88
2022-10-06T13:12:24.000Z,11.75
2022-10-06T13:17:24.000Z,11.71
2022-10-06T13:22:24.000Z,11.64
2022-10-06T13:27:25.000Z,12.57
2022-10-06T13:37:24.000Z,13.33
2022-10-06T13:42:25.000Z,12.69
2022-10-06T13:52:24.000Z,13.03
2022-10-06T13:57:25.000Z,12.71
2022-10-06T14:02:24.000Z,12.77
2022-10-06T14:07:24.000Z,17.59
2022-10-06T14:12:24.000Z,13.96
2022-10-06T14:17:25.000Z,12.56
2022-10-06T14:22:25.000Z,12.99
2022-10-06T14:27:24.000Z,13.84
2022-10-06T14:32:25.000Z,14.34
2022-10-06T14:37:24.000Z,14.88
2022-10-06T14:42:24.000Z,14.49
2022-10-06T14:47:24.000Z,13.27
2022-10-06T14:52:24.000Z,12.2
2022-10-06T14:57:25.000Z,12.27
2022-10-06T15:02:24.000Z,11.64
2022-10-06T15:07:25.000Z,11.96
2022-10-06T15:12:24.000Z,11.74
2022-10-06T15:17:24.000Z,11.71
2022-10-06T15:22:24.000Z,12.14
2022-10-06T15:27:25.000Z,11.82
2022-10-06T15:32:25.000Z,12.12
2022-10-06T15:37:25.000Z,12.56
2022-10-06T15:42:24.000Z,13.37
2022-10-06T15:47:24.000Z,13.6
2022-10-06T15:52:24.000Z,12.13
2022-10-06T15:57:25.000Z,12.01
2022-10-06T16:02:24.000Z,11.94
2022-10-06T16:07:24.000Z,12.74
2022-10-06T16:12:24.000Z,12.44
2022-10-06T16:17:24.000Z,13.09
2022-10-06T16:22:24.000Z,13.72
2022-10-06T16:27:25.000Z,13.82
2022-10-06T16:32:24.000Z,13.71
2022-10-06T16:37:25.000Z,13.51
2022-10-06T16:42:24.000Z,13.8
2022-10-06T16:47:24.000Z,14.55
2022-10-06T16:52:25.000Z,14.67
2022-10-06T16:57:24.000Z,15
2022-10-06T17:02:24.000Z,14.93
2022-10-06T17:07:24.000Z,14.35
2022-10-06T17:12:24.000Z,15.28
2022-10-06T17:17:25.000Z,15.19
2022-10-06T17:22:25.000Z,15.38
2022-10-06T17:27:24.000Z,15.05
2022-10-06T17:32:24.000Z,15.45
2022-10-06T17:37:24.000Z,15.16
2022-10-06T17:42:24.000Z,15.51
2022-10-06T17:47:25.000Z,15.65
2022-10-06T17:52:24.000Z,15.87
2022-10-06T17:57:24.000Z,15.29
2022-10-06T18:02:24.000Z,15.19
2022-10-06T18:07:24.000Z,15.08
2022-10-06T18:12:24.000Z,14.52
2022-10-06T18:17:25.000Z,14.9
2022-10-06T18:22:24.000Z,14.52
2022-10-06T18:27:25.000Z,14.51
2022-10-06T18:32:25.000Z,14.71
2022-10-06T18:42:25.000Z,14.76
2022-10-06T18:47:24.000Z,14.44
2022-10-06T18:52:24.000Z,15.01
2022-10-06T18:57:24.000Z,14.69
2022-10-06T19:02:24.000Z,14.41
2022-10-06T19:07:24.000Z,14.65
2022-10-06T19:12:25.000Z,14.3
2022-10-06T19:17:25.000Z,15.15
2022-10-06T19:22:24.000Z,15.28
2022-10-06T19:27:24.000Z,15.18
2022-10-06T19:32:25.000Z,16.04
2022-10-06T19:37:24.000Z,16.05
2022-10-06T19:42:24.000Z,16.32
2022-10-06T19:47:24.000Z,16.97
2022-10-06T19:52:24.000Z,17.75
2022-10-06T19:57:25.000Z,18.39
2022-10-06T20:02:25.000Z,18.26
2022-10-06T20:07:25.000Z,18.8
2022-10-06T20:12:24.000Z,19.88
2022-10-06T20:17:25.000Z,19.83
2022-10-06T20:22:24.000Z,18.47
2022-10-06T20:27:25.000Z,17.95
2022-10-06T20:32:25.000Z,17.01
2022-10-06T20:37:24.000Z,16.33
2022-10-06T20:42:25.000Z,16.04
2022-10-06T20:47:24.000Z,16.14
2022-10-06T20:52:24.000Z,16.24
2022-10-06T20:57:25.000Z,16.22
2022-10-06T21:02:24.000Z,15.29
2022-10-06T21:07:25.000Z,15.44
2022-10-06T21:12:25.000Z,16
2022-10-06T21:17:24.000Z,15.69
2022-10-06T21:27:24.000Z,17.02
2022-10-06T21:32:25.000Z,17.02
2022-10-06T21:37:24.000Z,16.01
2022-10-06T21:42:25.000Z,16.25
2022-10-06T21:47:24.000Z,15.76
2022-10-06T21:52:24.000Z,16.23
2022-10-06T21:57:25.000Z,16.07
2022-10-06T22:02:24.000Z,16.73
2022-10-06T22:07:24.000Z,15.88
2022-10-06T22:12:25.000Z,16.39
2022-10-06T22:17:24.000Z,15.18
2022-10-06T22:22:24.000Z,15.17
2022-10-06T22:27:24.000Z,15.14
2022-10-06T22:32:25.000Z,14.79
2022-10-06T22:37:24.000Z,14.23
2022-10-06T22:42:24.000Z,14.19
2022-10-06T22:47:24.000Z,14.1
2022-10-06T22:52:25.000Z,14.1
2022-10-06T22:57:24.000Z,13.66
2022-10-06T23:02:24.000Z,12.86
2022-10-06T23:07:25.000Z,11.87
2022-10-06T23:12:25.000Z,11.83
2022-10-06T23:17:25.000Z,12
2022-10-06T23:22:25.000Z,12.29
2022-10-06T23:27:24.000Z,11.9
2022-10-06T23:32:24.000Z,11.9
2022-10-06T23:37:24.000Z,11.73
2022-10-06T23:42:24.000Z,11.51
2022-10-06T23:47:25.000Z,11.29
2022-10-06T23:52:24.000Z,11.2
2022-10-06T23:57:24.000Z,10.96
